createdAt,value
2019-05-12T00:01:58.753Z,100972.20
2019-05-12T00:04:28.508Z,100980.09
2019-05-12T00:06:58.633Z,100971.32
2019-05-12T00:09:28.512Z,100977.33
2019-05-12T00:11:59.119Z,100977.80
2019-05-12T00:14:28.887Z,100979.52
2019-05-12T00:16:58.542Z,100985.25
2019-05-12T00:19:28.643Z,100980.50
2019-05-12T00:21:58.850Z,100972.94
2019-05-12T00:24:28.492Z,100975.81
2019-05-12T00:26:59.786Z,100976.59
2019-05-12T00:29:29.407Z,100979.22
2019-05-12T00:31:59.072Z,100984.09
2019-05-12T00:34:29.011Z,100987.09
2019-05-12T00:36:58.635Z,100985.06
2019-05-12T00:39:28.255Z,100983.56
2019-05-12T00:41:58.636Z,100981.06
2019-05-12T00:44:28.629Z,100983.95
2019-05-12T00:46:58.263Z,100981.34
2019-05-12T00:49:28.959Z,100986.23
2019-05-12T00:51:58.881Z,100990.17
2019-05-12T00:54:28.662Z,101001.11
2019-05-12T00:56:58.688Z,101005.15
2019-05-12T00:59:28.278Z,101006.84
2019-05-12T01:01:58.641Z,101010.77
2019-05-12T01:04:29.129Z,101005.53
2019-05-12T01:06:58.994Z,101004.44
2019-05-12T01:09:28.752Z,100998.61
2019-05-12T01:11:58.943Z,101002.91
2019-05-12T01:14:28.783Z,101006.67
2019-05-12T01:16:58.816Z,101009.94
2019-05-12T01:19:28.907Z,101013.00
2019-05-12T01:22:00.016Z,101018.61
2019-05-12T01:24:29.672Z,101018.90
2019-05-12T01:27:00.738Z,101021.98
2019-05-12T01:29:31.824Z,101026.06
2019-05-12T01:32:04.531Z,101033.50
2019-05-12T01:34:38.184Z,101031.77
2019-05-12T01:37:27.816Z,101036.25
2019-05-12T01:39:59.747Z,101043.20
2019-05-12T01:42:28.876Z,101037.30
2019-05-12T01:44:58.574Z,101047.20
2019-05-12T01:47:29.067Z,101048.00
2019-05-12T01:49:58.908Z,101052.99
2019-05-12T01:52:28.689Z,101057.75
2019-05-12T01:54:59.153Z,101055.34
2019-05-12T01:57:28.947Z,101052.08
2019-05-12T01:59:58.750Z,101050.70
2019-05-12T02:02:28.667Z,101062.19
2019-05-12T02:05:02.466Z,101059.88
2019-05-12T02:07:38.397Z,101057.22
2019-05-12T02:10:09.522Z,101056.85
2019-05-12T02:12:39.483Z,101062.53
2019-05-12T02:15:09.340Z,101066.20
2019-05-12T02:17:39.521Z,101073.19
2019-05-12T02:20:09.710Z,101084.73
2019-05-12T02:22:39.829Z,101079.38
2019-05-12T02:25:09.637Z,101091.27
2019-05-12T02:27:39.535Z,101094.17
2019-05-12T02:30:10.376Z,101093.48
2019-05-12T02:32:48.483Z,101093.58
2019-05-12T02:35:11.813Z,101096.50
2019-05-12T02:37:45.220Z,101099.86
2019-05-12T02:40:15.083Z,101102.87
2019-05-12T02:42:46.363Z,101110.84
2019-05-12T02:45:16.687Z,101106.69
2019-05-12T02:47:46.437Z,101117.33
2019-05-12T02:50:19.105Z,101112.11
2019-05-12T02:52:49.089Z,101118.32
2019-05-12T02:55:18.708Z,101122.32
2019-05-12T02:57:50.496Z,101121.91
2019-05-12T03:00:20.113Z,101125.06
2019-05-12T03:02:54.589Z,101143.02
2019-05-12T03:05:24.879Z,101134.80
2019-05-12T03:07:56.006Z,101145.37
2019-05-12T03:10:25.824Z,101140.41
2019-05-12T03:12:55.682Z,101155.42
2019-05-12T03:15:25.365Z,101159.50
2019-05-12T03:17:55.025Z,101158.81
2019-05-12T03:20:24.647Z,101168.84
2019-05-12T03:22:55.407Z,101172.14
2019-05-12T03:25:29.827Z,101168.25
2019-05-12T03:27:56.641Z,101171.17
2019-05-12T03:30:29.108Z,101176.16
2019-05-12T03:32:58.578Z,101177.00
2019-05-12T03:35:35.023Z,101180.69
2019-05-12T03:37:59.678Z,101185.73
2019-05-12T03:40:29.291Z,101195.11
2019-05-12T03:42:58.947Z,101196.52
2019-05-12T03:45:28.564Z,101193.52
2019-05-12T03:47:58.273Z,101202.95
2019-05-12T03:50:27.885Z,101197.20
2019-05-12T03:52:57.538Z,101199.97
2019-05-12T03:55:35.486Z,101201.90
2019-05-12T03:57:58.499Z,101212.69
2019-05-12T04:00:28.140Z,101212.64
2019-05-12T04:02:57.767Z,101215.56
2019-05-12T04:05:27.437Z,101229.86
2019-05-12T04:07:57.038Z,101228.77
2019-05-12T04:10:26.685Z,101232.73
2019-05-12T04:12:56.315Z,101244.41
2019-05-12T04:15:25.964Z,101245.31
2019-05-12T04:17:55.582Z,101246.53
2019-05-12T04:20:25.725Z,101254.16
2019-05-12T04:22:55.340Z,101262.61
2019-05-12T04:25:25.271Z,101267.15
2019-05-12T04:27:54.903Z,101278.74
2019-05-12T04:30:25.211Z,101284.79
2019-05-12T04:32:55.382Z,101281.34
2019-05-12T04:35:25.590Z,101281.25
2019-05-12T04:37:55.651Z,101280.59
2019-05-12T04:40:25.349Z,101288.80
2019-05-12T04:42:55.111Z,101285.43
2019-05-12T04:45:25.756Z,101293.16
2019-05-12T04:47:55.475Z,101302.00
2019-05-12T04:50:25.425Z,101301.20
2019-05-12T04:52:56.755Z,101306.28
2019-05-12T04:55:27.103Z,101307.20
2019-05-12T04:57:56.725Z,101313.06
2019-05-12T05:00:26.367Z,101309.81
2019-05-12T05:02:56.020Z,101314.63
2019-05-12T05:05:25.662Z,101327.91
2019-05-12T05:07:55.278Z,101325.63
2019-05-12T05:10:25.202Z,101337.73
2019-05-12T05:12:54.840Z,101331.90
2019-05-12T05:15:25.087Z,101336.44
2019-05-12T05:17:54.790Z,101345.95
2019-05-12T05:20:24.437Z,101356.80
2019-05-12T05:22:54.285Z,101359.55
2019-05-12T05:25:23.990Z,101360.94
2019-05-12T05:27:53.615Z,101364.72
2019-05-12T05:30:24.338Z,101366.80
2019-05-12T05:32:54.061Z,101361.31
2019-05-12T05:35:23.932Z,101375.59
2019-05-12T05:37:54.061Z,101376.36
2019-05-12T05:40:25.977Z,101378.32
2019-05-12T05:42:55.180Z,101388.98
2019-05-12T05:45:26.488Z,101388.62
2019-05-12T05:47:59.545Z,101391.87
2019-05-12T05:50:29.510Z,101398.10
2019-05-12T05:52:58.906Z,101401.11
2019-05-12T05:55:28.529Z,101402.94
2019-05-12T05:57:59.911Z,101409.58
2019-05-12T06:00:29.589Z,101414.02
2019-05-12T06:02:59.306Z,101412.98
2019-05-12T06:05:30.975Z,101413.91
2019-05-12T06:08:00.263Z,101416.52
2019-05-12T06:10:36.045Z,101426.33
2019-05-12T06:13:03.779Z,101434.23
2019-05-12T06:15:35.907Z,101438.13
2019-05-12T06:18:04.077Z,101438.66
2019-05-12T06:20:37.735Z,101432.55
2019-05-12T06:23:05.090Z,101434.48
2019-05-12T06:25:46.371Z,101437.42
2019-05-12T06:28:08.934Z,101446.32
2019-05-12T06:30:44.304Z,101443.22
2019-05-12T06:33:10.094Z,101446.52
2019-05-12T06:35:42.218Z,101446.34
2019-05-12T06:38:13.566Z,101456.55
2019-05-12T06:40:45.279Z,101455.44
2019-05-12T06:43:15.239Z,101463.87
2019-05-12T06:45:45.740Z,101471.41
2019-05-12T06:48:19.235Z,101476.37
2019-05-12T06:50:46.920Z,101491.16
2019-05-12T06:53:20.086Z,101496.52
2019-05-12T06:55:47.883Z,101500.17
2019-05-12T06:58:26.303Z,101499.27
2019-05-12T07:00:48.847Z,101507.14
2019-05-12T07:03:19.454Z,101502.98
2019-05-12T07:05:49.881Z,101507.09
2019-05-12T07:08:26.588Z,101507.20
2019-05-12T07:10:57.780Z,101510.41
2019-05-12T07:13:24.889Z,101511.66
2019-05-12T07:15:54.442Z,101505.59
2019-05-12T07:18:32.216Z,101513.47
2019-05-12T07:20:55.433Z,101519.15
2019-05-12T07:23:30.165Z,101521.84
2019-05-12T07:25:56.498Z,101521.09
2019-05-12T07:28:30.314Z,101535.27
2019-05-12T07:30:57.471Z,101532.45
2019-05-12T07:33:27.110Z,101539.31
2019-05-12T07:36:01.160Z,101544.72
2019-05-12T07:38:31.148Z,101542.22
2019-05-12T07:41:08.896Z,101545.09
2019-05-12T07:43:33.881Z,101553.70
2019-05-12T07:46:07.143Z,101553.06
2019-05-12T07:48:40.186Z,101555.67
2019-05-12T07:51:07.163Z,101560.03
2019-05-12T07:53:37.181Z,101563.09
2019-05-12T07:56:06.804Z,101569.91
2019-05-12T07:58:40.857Z,101577.98
2019-05-12T08:01:08.147Z,101584.27
2019-05-12T08:03:37.802Z,101586.59
2019-05-12T08:06:07.428Z,101592.13
2019-05-12T08:08:41.830Z,101598.06
2019-05-12T08:11:08.475Z,101602.17
2019-05-12T08:13:40.958Z,101597.48
2019-05-12T08:16:10.085Z,101602.66
2019-05-12T08:18:41.141Z,101610.80
2019-05-12T08:21:11.116Z,101605.05
2019-05-12T08:23:40.794Z,101612.95
2019-05-12T08:26:16.262Z,101616.48
2019-05-12T08:28:44.234Z,101617.79
2019-05-12T08:31:14.226Z,101620.13
2019-05-12T08:33:43.872Z,101630.09
2019-05-12T08:36:16.330Z,101625.73
2019-05-12T08:38:45.206Z,101627.91
2019-05-12T08:41:14.857Z,101635.52
2019-05-12T08:43:47.158Z,101637.46
2019-05-12T08:46:16.019Z,101645.96
2019-05-12T08:48:45.634Z,101643.86
2019-05-12T08:51:19.862Z,101641.91
2019-05-12T08:53:46.602Z,101647.64
2019-05-12T08:56:19.423Z,101657.59
2019-05-12T08:58:51.232Z,101670.38
2019-05-12T09:01:20.461Z,101679.19
2019-05-12T09:03:50.247Z,101673.59
2019-05-12T09:06:20.435Z,101685.59
2019-05-12T09:08:50.231Z,101684.69
2019-05-12T09:11:19.850Z,101687.76
2019-05-12T09:13:52.500Z,101693.34
2019-05-12T09:16:20.809Z,101698.98
2019-05-12T09:18:50.428Z,101705.85
2019-05-12T09:21:25.264Z,101708.96
2019-05-12T09:23:55.424Z,101707.22
2019-05-12T09:26:24.983Z,101714.38
2019-05-12T09:28:54.371Z,101719.95
2019-05-12T09:31:25.521Z,101721.91
2019-05-12T09:33:55.429Z,101724.41
2019-05-12T09:36:25.171Z,101729.59
2019-05-12T09:39:01.670Z,101740.31
2019-05-12T09:41:26.166Z,101744.95
2019-05-12T09:43:55.790Z,101744.50
2019-05-12T09:46:28.391Z,101754.41
2019-05-12T09:48:56.884Z,101760.09
2019-05-12T09:51:27.078Z,101760.62
2019-05-12T09:53:56.704Z,101765.14
2019-05-12T09:56:26.361Z,101766.36
2019-05-12T09:59:01.441Z,101769.63
2019-05-12T10:01:29.227Z,101779.77
2019-05-12T10:03:58.680Z,101775.91
2019-05-12T10:06:28.499Z,101780.98
2019-05-12T10:08:58.119Z,101782.87
2019-05-12T10:11:27.774Z,101784.48
2019-05-12T10:14:00.205Z,101781.02
2019-05-12T10:16:28.851Z,101781.25
2019-05-12T10:18:58.476Z,101787.97
2019-05-12T10:21:28.128Z,101790.08
2019-05-12T10:24:01.758Z,101801.59
2019-05-12T10:26:29.106Z,101802.83
2019-05-12T10:29:13.352Z,101794.80
2019-05-12T10:31:35.639Z,101800.98
2019-05-12T10:34:20.045Z,101807.27
2019-05-12T10:36:53.507Z,101813.66
2019-05-12T10:39:24.342Z,101808.94
2019-05-12T10:41:54.789Z,101808.94
2019-05-12T10:44:30.012Z,101803.25
2019-05-12T10:46:57.534Z,101808.29
2019-05-12T10:49:27.169Z,101815.75
2019-05-12T10:51:56.837Z,101810.32
2019-05-12T10:54:26.478Z,101824.03
2019-05-12T10:56:56.229Z,101833.14
2019-05-12T10:59:32.146Z,101834.31
2019-05-12T11:01:57.220Z,101834.86
2019-05-12T11:04:35.749Z,101834.05
2019-05-12T11:06:58.233Z,101844.78
2019-05-12T11:09:31.666Z,101849.48
2019-05-12T11:11:59.285Z,101852.62
2019-05-12T11:14:30.582Z,101849.20
2019-05-12T11:17:07.412Z,101856.59
2019-05-12T11:19:33.826Z,101855.38
2019-05-12T11:22:06.137Z,101863.94
2019-05-12T11:24:35.798Z,101859.17
2019-05-12T11:27:05.531Z,101865.80
2019-05-12T11:29:45.810Z,101877.02
2019-05-12T11:32:06.524Z,101877.25
2019-05-12T11:34:36.180Z,101881.55
2019-05-12T11:37:05.810Z,101882.39
2019-05-12T11:39:36.773Z,101885.20
2019-05-12T11:42:06.908Z,101881.98
2019-05-12T11:44:37.142Z,101896.00
2019-05-12T11:47:06.976Z,101896.22
2019-05-12T11:49:37.117Z,101898.53
2019-05-12T11:52:13.302Z,101902.56
2019-05-12T11:54:41.099Z,101904.48
2019-05-12T11:57:10.029Z,101910.98
2019-05-12T11:59:40.100Z,101908.58
2019-05-12T12:02:09.744Z,101912.50
2019-05-12T12:04:45.092Z,101915.47
2019-05-12T12:07:16.553Z,101917.30
2019-05-12T12:09:49.467Z,101923.25
2019-05-12T12:12:17.553Z,101923.86
2019-05-12T12:14:50.326Z,101927.03
2019-05-12T12:17:25.122Z,101926.72
2019-05-12T12:19:49.908Z,101928.80
2019-05-12T12:22:20.380Z,101931.66
2019-05-12T12:24:50.890Z,101937.61
2019-05-12T12:27:20.514Z,101944.84
2019-05-12T12:29:50.175Z,101944.13
2019-05-12T12:32:20.563Z,101950.14
2019-05-12T12:34:50.342Z,101949.55
2019-05-12T12:37:24.135Z,101947.84
2019-05-12T12:39:53.491Z,101950.69
2019-05-12T12:42:24.179Z,101958.11
2019-05-12T12:44:58.716Z,101964.66
2019-05-12T12:47:25.212Z,101962.73
2019-05-12T12:49:54.880Z,101964.23
2019-05-12T12:52:24.513Z,101971.22
2019-05-12T12:54:54.435Z,101966.91
2019-05-12T12:57:24.104Z,101969.75
2019-05-12T12:59:53.775Z,101978.12
2019-05-12T13:02:24.730Z,101982.50
2019-05-12T13:04:54.545Z,101984.00
2019-05-12T13:07:24.262Z,101998.52
2019-05-12T13:09:55.032Z,101997.41
2019-05-12T13:12:25.239Z,101995.31
2019-05-12T13:14:54.903Z,102001.83
2019-05-12T13:17:27.223Z,102006.93
2019-05-12T13:19:58.703Z,102018.98
2019-05-12T13:22:29.555Z,102024.27
2019-05-12T13:25:04.528Z,102016.13
2019-05-12T13:27:29.902Z,102018.85
2019-05-12T13:30:01.952Z,102027.56
2019-05-12T13:32:31.981Z,102029.78
2019-05-12T13:35:04.225Z,102031.04
2019-05-12T13:37:33.841Z,102042.42
2019-05-12T13:40:05.159Z,102045.30
2019-05-12T13:42:35.797Z,102044.53
2019-05-12T13:45:06.981Z,102058.61
2019-05-12T13:47:39.896Z,102061.36
2019-05-12T13:50:15.508Z,102067.56
2019-05-12T13:52:40.199Z,102054.02
2019-05-12T13:55:10.231Z,102057.41
2019-05-12T13:57:46.167Z,102050.02
2019-05-12T14:00:14.014Z,102052.62
2019-05-12T14:02:44.315Z,102056.84
2019-05-12T14:05:15.434Z,102058.18
2019-05-12T14:07:45.212Z,102055.00
2019-05-12T14:10:15.789Z,102050.91
2019-05-12T14:12:45.451Z,102049.44
2019-05-12T14:15:16.220Z,102047.41
2019-05-12T14:17:45.888Z,102045.20
2019-05-12T14:20:19.877Z,102041.97
2019-05-12T14:22:46.951Z,102045.36
2019-05-12T14:25:20.917Z,102048.58
2019-05-12T14:27:48.209Z,102045.48
2019-05-12T14:30:17.909Z,102048.06
2019-05-12T14:32:49.373Z,102051.34
2019-05-12T14:35:18.919Z,102051.77
2019-05-12T14:37:48.575Z,102057.69
2019-05-12T14:40:21.187Z,102061.59
2019-05-12T14:42:49.555Z,102062.14
2019-05-12T14:45:24.237Z,102068.98
2019-05-12T14:47:50.539Z,102081.72
2019-05-12T14:50:20.238Z,102079.86
2019-05-12T14:52:54.810Z,102080.50
2019-05-12T14:55:21.302Z,102075.73
2019-05-12T14:57:50.976Z,102081.16
2019-05-12T15:00:23.920Z,102078.02
2019-05-12T15:02:53.978Z,102079.52
2019-05-12T15:05:27.449Z,102079.19
2019-05-12T15:07:58.576Z,102082.55
2019-05-12T15:10:26.412Z,102084.63
2019-05-12T15:12:56.163Z,102081.19
2019-05-12T15:15:25.795Z,102089.02
2019-05-12T15:18:03.525Z,102084.95
2019-05-12T15:20:26.780Z,102082.39
2019-05-12T15:22:56.451Z,102075.98
2019-05-12T15:25:29.366Z,102080.62
2019-05-12T15:27:57.464Z,102079.09
2019-05-12T15:30:27.091Z,102090.13
2019-05-12T15:32:56.738Z,102091.83
2019-05-12T15:35:26.364Z,102097.63
2019-05-12T15:37:56.021Z,102104.95
2019-05-12T15:40:25.658Z,102106.48
2019-05-12T15:43:00.509Z,102104.32
2019-05-12T15:45:26.644Z,102113.81
2019-05-12T15:47:56.304Z,102115.43
2019-05-12T15:50:26.297Z,102115.83
2019-05-12T15:52:55.973Z,102119.86
2019-05-12T15:55:32.705Z,102123.94
2019-05-12T15:57:56.960Z,102120.53
2019-05-12T16:00:26.590Z,102121.57
2019-05-12T16:02:56.244Z,102125.39
2019-05-12T16:05:30.808Z,102117.83
2019-05-12T16:07:57.226Z,102119.78
2019-05-12T16:10:26.865Z,102117.27
2019-05-12T16:12:56.529Z,102125.18
2019-05-12T16:15:26.352Z,102121.16
2019-05-12T16:17:59.314Z,102122.76
2019-05-12T16:20:27.432Z,102121.38
2019-05-12T16:22:57.105Z,102121.72
2019-05-12T16:25:30.592Z,102120.91
2019-05-12T16:27:58.092Z,102127.38
2019-05-12T16:30:27.759Z,102123.76
2019-05-12T16:32:57.411Z,102129.18
2019-05-12T16:35:31.403Z,102127.03
2019-05-12T16:37:58.397Z,102134.33
2019-05-12T16:40:28.063Z,102141.06
2019-05-12T16:42:59.820Z,102134.41
2019-05-12T16:45:29.086Z,102141.33
2019-05-12T16:47:59.193Z,102142.78
2019-05-12T16:50:30.103Z,102145.48
2019-05-12T16:52:59.751Z,102147.10
2019-05-12T16:55:29.415Z,102152.66
2019-05-12T16:57:59.045Z,102152.11
2019-05-12T17:00:30.971Z,102150.95
2019-05-12T17:03:00.056Z,102152.91
2019-05-12T17:05:29.726Z,102151.89
2019-05-12T17:07:59.365Z,102156.34
2019-05-12T17:10:29.026Z,102158.46
2019-05-12T17:12:58.666Z,102162.05
2019-05-12T17:15:28.324Z,102163.83
2019-05-12T17:18:01.581Z,102166.78
2019-05-12T17:20:29.439Z,102173.30
2019-05-12T17:23:00.321Z,102173.44
2019-05-12T17:25:30.215Z,102178.70
2019-05-12T17:28:03.631Z,102176.00
2019-05-12T17:30:31.202Z,102187.61
2019-05-12T17:33:02.566Z,102189.16
2019-05-12T17:35:34.845Z,102184.88
2019-05-12T17:38:04.352Z,102191.32
2019-05-12T17:40:34.180Z,102191.91
2019-05-12T17:43:11.780Z,102198.20
2019-05-12T17:45:35.530Z,102206.22
2019-05-12T17:48:07.701Z,102209.34
2019-05-12T17:50:40.483Z,102209.92
2019-05-12T17:53:07.866Z,102215.77
2019-05-12T17:55:42.626Z,102207.95
2019-05-12T17:58:08.931Z,102213.95
2019-05-12T18:00:41.491Z,102208.89
2019-05-12T18:03:20.429Z,102214.90
2019-05-12T18:05:42.429Z,102218.05
2019-05-12T18:08:14.276Z,102231.16
2019-05-12T18:10:44.216Z,102232.07
2019-05-12T18:13:15.071Z,102234.55
2019-05-12T18:15:45.248Z,102241.36
2019-05-12T18:18:17.375Z,102244.23
2019-05-12T18:20:46.260Z,102252.36
2019-05-12T18:23:19.846Z,102248.88
2019-05-12T18:25:47.250Z,102257.60
2019-05-12T18:28:21.802Z,102261.13
2019-05-12T18:30:48.449Z,102266.86
2019-05-12T18:33:32.661Z,102273.78
2019-05-12T18:35:49.554Z,102277.05
2019-05-12T18:38:23.924Z,102276.39
2019-05-12T18:40:50.570Z,102277.81
2019-05-12T18:43:20.207Z,102271.39
2019-05-12T18:45:56.649Z,102278.05
2019-05-12T18:48:24.557Z,102281.69
2019-05-12T18:50:52.704Z,102281.67
2019-05-12T18:53:27.920Z,102286.58
2019-05-12T18:55:54.136Z,102287.26
2019-05-12T18:58:30.599Z,102288.61
2019-05-12T19:00:55.208Z,102297.66
2019-05-12T19:03:25.560Z,102295.91
2019-05-12T19:05:58.113Z,102304.05
2019-05-12T19:08:26.722Z,102301.92
2019-05-12T19:10:56.370Z,102301.66
2019-05-12T19:13:27.934Z,102309.33
2019-05-12T19:16:02.494Z,102313.81
2019-05-12T19:18:32.492Z,102314.09
2019-05-12T19:21:00.273Z,102315.34
2019-05-12T19:23:35.148Z,102315.45
2019-05-12T19:26:01.281Z,102321.03
2019-05-12T19:28:30.960Z,102324.28
2019-05-12T19:31:05.384Z,102324.28
2019-05-12T19:33:31.957Z,102331.60
2019-05-12T19:36:05.362Z,102332.12
2019-05-12T19:38:34.606Z,102334.19
2019-05-12T19:41:04.770Z,102334.54
2019-05-12T19:43:39.275Z,102338.56
2019-05-12T19:46:05.815Z,102342.72
2019-05-12T19:48:47.613Z,102341.72
2019-05-12T19:51:20.847Z,102346.09
2019-05-12T19:53:38.432Z,102349.55
2019-05-12T19:56:08.311Z,102361.91
2019-05-12T19:58:38.320Z,102356.47
2019-05-12T20:01:07.953Z,102365.19
2019-05-12T20:03:37.884Z,102369.94
2019-05-12T20:06:07.519Z,102371.95
2019-05-12T20:08:37.176Z,102381.81
2019-05-12T20:11:06.811Z,102381.09
2019-05-12T20:13:40.039Z,102386.44
2019-05-12T20:16:11.503Z,102390.80
2019-05-12T20:18:42.991Z,102394.05
2019-05-12T20:21:10.491Z,102400.16
2019-05-12T20:23:40.147Z,102403.22
2019-05-12T20:26:09.770Z,102405.05
2019-05-12T20:28:42.106Z,102401.89
2019-05-12T20:31:13.746Z,102402.17
2019-05-12T20:33:43.492Z,102413.73
2019-05-12T20:36:14.250Z,102410.27
2019-05-12T20:38:44.523Z,102414.95
2019-05-12T20:41:21.851Z,102420.66
2019-05-12T20:43:45.587Z,102421.38
2019-05-12T20:46:21.726Z,102422.98
2019-05-12T20:48:46.623Z,102419.89
2019-05-12T20:51:20.125Z,102426.42
2019-05-12T20:53:47.614Z,102426.74
2019-05-12T20:56:21.644Z,102427.63
2019-05-12T20:58:48.608Z,102421.88
2019-05-12T21:01:20.151Z,102426.23
2019-05-12T21:03:51.052Z,102425.86
2019-05-12T21:06:20.805Z,102419.00
2019-05-12T21:08:53.605Z,102423.61
2019-05-12T21:11:24.328Z,102426.13
2019-05-12T21:13:54.563Z,102428.14
2019-05-12T21:16:31.307Z,102428.46
2019-05-12T21:19:06.329Z,102428.46
2019-05-12T21:21:33.167Z,102436.50
2019-05-12T21:23:59.460Z,102435.53
2019-05-12T21:26:34.735Z,102433.36
2019-05-12T21:29:00.646Z,102432.47
2019-05-12T21:31:31.083Z,102435.28
2019-05-12T21:34:03.815Z,102431.78
2019-05-12T21:36:33.852Z,102439.70
2019-05-12T21:39:10.255Z,102441.20
2019-05-12T21:41:40.651Z,102441.20
2019-05-12T21:44:11.118Z,102439.80
2019-05-12T21:46:47.485Z,102440.22
2019-05-12T21:49:12.931Z,102445.10
2019-05-12T21:51:44.626Z,102439.63
2019-05-12T21:54:14.033Z,102438.97
2019-05-12T21:56:49.007Z,102434.55
2019-05-12T21:59:15.724Z,102439.58
2019-05-12T22:01:46.031Z,102439.07
2019-05-12T22:04:15.753Z,102440.25
2019-05-12T22:06:45.504Z,102448.44
2019-05-12T22:09:17.585Z,102442.41
2019-05-12T22:11:51.370Z,102444.67
2019-05-12T22:14:17.890Z,102445.31
2019-05-12T22:16:49.166Z,102446.63
2019-05-12T22:19:18.793Z,102453.25
2019-05-12T22:21:49.616Z,102444.52
2019-05-12T22:24:19.260Z,102450.25
2019-05-12T22:26:48.912Z,102444.93
2019-05-12T22:29:21.350Z,102445.73
2019-05-12T22:31:50.021Z,102452.86
2019-05-12T22:34:19.637Z,102442.32
2019-05-12T22:36:55.285Z,102443.41
2019-05-12T22:39:20.714Z,102437.77
2019-05-12T22:41:50.370Z,102439.07
2019-05-12T22:44:22.172Z,102446.74
2019-05-12T22:46:51.355Z,102443.87
2019-05-12T22:49:21.366Z,102443.97
2019-05-12T22:51:54.598Z,102442.63
2019-05-12T22:54:24.392Z,102442.66
2019-05-12T22:56:55.380Z,102440.94
2019-05-12T22:59:25.084Z,102441.77
2019-05-12T23:01:54.731Z,102443.84
2019-05-12T23:04:25.908Z,102434.41
2019-05-12T23:06:55.699Z,102441.89
2019-05-12T23:09:29.912Z,102439.94
2019-05-12T23:11:56.698Z,102440.73
2019-05-12T23:14:26.416Z,102442.05
2019-05-12T23:17:00.173Z,102443.12
2019-05-12T23:19:27.495Z,102450.59
2019-05-12T23:21:58.744Z,102447.54
2019-05-12T23:24:30.431Z,102450.06
2019-05-12T23:27:00.167Z,102456.70
2019-05-12T23:29:31.150Z,102447.98
2019-05-12T23:32:07.218Z,102452.70
2019-05-12T23:34:33.866Z,102451.97
2019-05-12T23:37:03.986Z,102455.47
2019-05-12T23:39:38.118Z,102445.55
2019-05-12T23:42:05.077Z,102453.89
2019-05-12T23:44:34.694Z,102447.39
2019-05-12T23:47:04.499Z,102446.53
2019-05-12T23:49:34.130Z,102446.65
2019-05-12T23:52:04.123Z,102448.48
2019-05-12T23:54:34.446Z,102445.43
2019-05-12T23:57:04.359Z,102449.43
2019-05-12T23:59:33.972Z,102447.30
